sensor_id;sensor_type;location;lat;lon;timestamp;temperature;humidity
30290;DHT22;17105;55.652;37.710;2023-06-04T00:00:28;17.10;70.30
30290;DHT22;17105;55.652;37.710;2023-06-04T00:01:04;17.10;70.80
30290;DHT22;17105;55.652;37.710;2023-06-04T00:01:49;17.10;70.10
30290;DHT22;17105;55.652;37.710;2023-06-04T00:02:23;17.10;70.10
30290;DHT22;17105;55.652;37.710;2023-06-04T00:02:57;17.10;70.40
30290;DHT22;17105;55.652;37.710;2023-06-04T00:03:31;17.10;70.10
30290;DHT22;17105;55.652;37.710;2023-06-04T00:04:05;17.10;70.10
30290;DHT22;17105;55.652;37.710;2023-06-04T00:04:40;17.10;70.10
30290;DHT22;17105;55.652;37.710;2023-06-04T00:05:13;17.10;70.00
30290;DHT22;17105;55.652;37.710;2023-06-04T00:05:48;17.10;69.90
30290;DHT22;17105;55.652;37.710;2023-06-04T00:06:23;17.10;70.10
30290;DHT22;17105;55.652;37.710;2023-06-04T00:06:57;17.10;69.80
30290;DHT22;17105;55.652;37.710;2023-06-04T00:07:32;17.10;69.80
30290;DHT22;17105;55.652;37.710;2023-06-04T00:08:06;17.10;70.00
30290;DHT22;17105;55.652;37.710;2023-06-04T00:08:41;17.10;69.90
30290;DHT22;17105;55.652;37.710;2023-06-04T00:09:15;17.10;69.90
30290;DHT22;17105;55.652;37.710;2023-06-04T00:09:49;17.10;70.00
30290;DHT22;17105;55.652;37.710;2023-06-04T00:10:22;17.00;69.90
30290;DHT22;17105;55.652;37.710;2023-06-04T00:10:56;17.10;69.90
30290;DHT22;17105;55.652;37.710;2023-06-04T00:11:31;17.10;69.90
30290;DHT22;17105;55.652;37.710;2023-06-04T00:12:08;17.00;69.80
30290;DHT22;17105;55.652;37.710;2023-06-04T00:12:42;17.00;70.10
30290;DHT22;17105;55.652;37.710;2023-06-04T00:13:16;17.00;70.00
30290;DHT22;17105;55.652;37.710;2023-06-04T00:13:55;17.00;69.90
30290;DHT22;17105;55.652;37.710;2023-06-04T00:14:32;17.00;70.00
30290;DHT22;17105;55.652;37.710;2023-06-04T00:15:07;17.00;69.80
30290;DHT22;17105;55.652;37.710;2023-06-04T00:15:40;17.00;69.70
30290;DHT22;17105;55.652;37.710;2023-06-04T00:16:13;17.00;69.80
30290;DHT22;17105;55.652;37.710;2023-06-04T00:16:49;17.00;69.80
30290;DHT22;17105;55.652;37.710;2023-06-04T00:17:23;17.00;69.80
30290;DHT22;17105;55.652;37.710;2023-06-04T00:17:57;17.00;69.70
30290;DHT22;17105;55.652;37.710;2023-06-04T00:18:33;17.00;69.80
30290;DHT22;17105;55.652;37.710;2023-06-04T00:19:08;17.00;69.90
30290;DHT22;17105;55.652;37.710;2023-06-04T00:19:41;17.00;69.60
30290;DHT22;17105;55.652;37.710;2023-06-04T00:20:16;17.00;69.40
30290;DHT22;17105;55.652;37.710;2023-06-04T00:20:50;17.00;69.40
30290;DHT22;17105;55.652;37.710;2023-06-04T00:21:25;17.00;69.50
30290;DHT22;17105;55.652;37.710;2023-06-04T00:21:59;17.00;69.20
30290;DHT22;17105;55.652;37.710;2023-06-04T00:22:33;17.00;69.30
30290;DHT22;17105;55.652;37.710;2023-06-04T00:23:07;17.00;69.90
30290;DHT22;17105;55.652;37.710;2023-06-04T00:23:40;17.00;69.60
30290;DHT22;17105;55.652;37.710;2023-06-04T00:24:14;17.00;69.40
30290;DHT22;17105;55.652;37.710;2023-06-04T00:24:48;17.00;69.70
30290;DHT22;17105;55.652;37.710;2023-06-04T00:25:23;17.00;69.70
30290;DHT22;17105;55.652;37.710;2023-06-04T00:25:56;17.00;69.70
30290;DHT22;17105;55.652;37.710;2023-06-04T00:26:32;17.00;69.60
30290;DHT22;17105;55.652;37.710;2023-06-04T00:27:07;17.00;69.50
30290;DHT22;17105;55.652;37.710;2023-06-04T00:27:45;17.10;69.50
30290;DHT22;17105;55.652;37.710;2023-06-04T00:28:20;17.00;69.60
30290;DHT22;17105;55.652;37.710;2023-06-04T00:28:54;17.00;69.50
30290;DHT22;17105;55.652;37.710;2023-06-04T00:29:28;17.00;69.40
30290;DHT22;17105;55.652;37.710;2023-06-04T00:30:04;17.00;69.40
30290;DHT22;17105;55.652;37.710;2023-06-04T00:30:39;17.00;70.00
30290;DHT22;17105;55.652;37.710;2023-06-04T00:31:14;17.00;69.60
30290;DHT22;17105;55.652;37.710;2023-06-04T00:31:49;17.00;69.70
30290;DHT22;17105;55.652;37.710;2023-06-04T00:32:23;17.00;69.40
30290;DHT22;17105;55.652;37.710;2023-06-04T00:32:58;17.00;69.20
30290;DHT22;17105;55.652;37.710;2023-06-04T00:33:31;17.00;69.30
30290;DHT22;17105;55.652;37.710;2023-06-04T00:34:05;17.00;69.20
30290;DHT22;17105;55.652;37.710;2023-06-04T00:34:39;17.00;69.10
30290;DHT22;17105;55.652;37.710;2023-06-04T00:35:13;17.00;68.90
30290;DHT22;17105;55.652;37.710;2023-06-04T00:35:48;17.00;68.80
30290;DHT22;17105;55.652;37.710;2023-06-04T00:36:22;17.00;68.80
30290;DHT22;17105;55.652;37.710;2023-06-04T00:36:56;17.00;68.80
30290;DHT22;17105;55.652;37.710;2023-06-04T00:37:31;17.00;69.00
30290;DHT22;17105;55.652;37.710;2023-06-04T00:38:05;17.00;69.10
30290;DHT22;17105;55.652;37.710;2023-06-04T00:38:39;17.00;69.10
30290;DHT22;17105;55.652;37.710;2023-06-04T00:39:13;17.00;69.10
30290;DHT22;17105;55.652;37.710;2023-06-04T00:39:48;17.00;69.00
30290;DHT22;17105;55.652;37.710;2023-06-04T00:40:21;17.00;69.10
30290;DHT22;17105;55.652;37.710;2023-06-04T00:40:56;17.00;69.00
30290;DHT22;17105;55.652;37.710;2023-06-04T00:41:30;17.00;68.80
30290;DHT22;17105;55.652;37.710;2023-06-04T00:42:06;17.00;68.80
30290;DHT22;17105;55.652;37.710;2023-06-04T00:42:40;17.00;68.80
30290;DHT22;17105;55.652;37.710;2023-06-04T00:43:14;17.00;68.60
30290;DHT22;17105;55.652;37.710;2023-06-04T00:43:48;17.00;68.80
30290;DHT22;17105;55.652;37.710;2023-06-04T00:44:30;17.00;69.00
30290;DHT22;17105;55.652;37.710;2023-06-04T00:45:06;17.00;69.10
30290;DHT22;17105;55.652;37.710;2023-06-04T00:45:43;17.00;69.10
30290;DHT22;17105;55.652;37.710;2023-06-04T00:46:17;17.00;69.00
30290;DHT22;17105;55.652;37.710;2023-06-04T00:46:55;17.00;69.00
30290;DHT22;17105;55.652;37.710;2023-06-04T00:47:28;17.00;68.90
30290;DHT22;17105;55.652;37.710;2023-06-04T00:48:03;17.00;68.90
30290;DHT22;17105;55.652;37.710;2023-06-04T00:48:39;17.00;68.90
30290;DHT22;17105;55.652;37.710;2023-06-04T00:49:15;17.00;68.90
30290;DHT22;17105;55.652;37.710;2023-06-04T00:49:49;17.00;69.00
30290;DHT22;17105;55.652;37.710;2023-06-04T00:50:24;17.00;68.90
30290;DHT22;17105;55.652;37.710;2023-06-04T00:50:57;17.00;68.60
30290;DHT22;17105;55.652;37.710;2023-06-04T00:51:31;17.00;68.80
30290;DHT22;17105;55.652;37.710;2023-06-04T00:52:09;17.00;69.00
30290;DHT22;17105;55.652;37.710;2023-06-04T00:52:43;16.90;69.00
30290;DHT22;17105;55.652;37.710;2023-06-04T00:53:16;16.90;68.80
30290;DHT22;17105;55.652;37.710;2023-06-04T00:53:51;16.90;68.80
30290;DHT22;17105;55.652;37.710;2023-06-04T00:54:24;16.90;68.90
30290;DHT22;17105;55.652;37.710;2023-06-04T00:54:58;16.90;68.80
30290;DHT22;17105;55.652;37.710;2023-06-04T00:55:33;16.90;68.80
30290;DHT22;17105;55.652;37.710;2023-06-04T00:56:07;16.90;68.80
30290;DHT22;17105;55.652;37.710;2023-06-04T00:56:40;16.90;68.90
30290;DHT22;17105;55.652;37.710;2023-06-04T00:57:16;16.90;68.90
30290;DHT22;17105;55.652;37.710;2023-06-04T00:57:50;16.90;69.40
30290;DHT22;17105;55.652;37.710;2023-06-04T00:58:24;16.90;68.80
30290;DHT22;17105;55.652;37.710;2023-06-04T00:58:59;16.90;68.90
30290;DHT22;17105;55.652;37.710;2023-06-04T00:59:35;16.90;69.10
30290;DHT22;17105;55.652;37.710;2023-06-04T01:00:10;16.90;69.40
30290;DHT22;17105;55.652;37.710;2023-06-04T01:00:44;16.90;69.10
30290;DHT22;17105;55.652;37.710;2023-06-04T01:01:22;16.90;68.90
30290;DHT22;17105;55.652;37.710;2023-06-04T01:02:05;16.90;68.80
30290;DHT22;17105;55.652;37.710;2023-06-04T01:02:40;16.90;68.80
30290;DHT22;17105;55.652;37.710;2023-06-04T01:03:18;16.90;68.70
30290;DHT22;17105;55.652;37.710;2023-06-04T01:03:55;16.90;68.80
30290;DHT22;17105;55.652;37.710;2023-06-04T01:04:33;16.90;69.10
30290;DHT22;17105;55.652;37.710;2023-06-04T01:05:16;16.90;69.10
30290;DHT22;17105;55.652;37.710;2023-06-04T01:05:58;16.90;69.00
30290;DHT22;17105;55.652;37.710;2023-06-04T01:06:38;16.90;68.80
30290;DHT22;17105;55.652;37.710;2023-06-04T01:07:14;16.90;69.10
30290;DHT22;17105;55.652;37.710;2023-06-04T01:07:48;16.90;68.80
30290;DHT22;17105;55.652;37.710;2023-06-04T01:08:24;16.90;68.70
30290;DHT22;17105;55.652;37.710;2023-06-04T01:08:59;16.90;68.50
30290;DHT22;17105;55.652;37.710;2023-06-04T01:09:34;16.90;68.40
30290;DHT22;17105;55.652;37.710;2023-06-04T01:10:09;16.80;69.20
30290;DHT22;17105;55.652;37.710;2023-06-04T01:10:51;16.80;68.70
30290;DHT22;17105;55.652;37.710;2023-06-04T01:11:31;16.80;68.90
30290;DHT22;17105;55.652;37.710;2023-06-04T01:12:06;16.80;68.80
30290;DHT22;17105;55.652;37.710;2023-06-04T01:12:41;16.70;68.80
30290;DHT22;17105;55.652;37.710;2023-06-04T01:13:15;16.70;68.90
30290;DHT22;17105;55.652;37.710;2023-06-04T01:13:49;16.70;69.00
30290;DHT22;17105;55.652;37.710;2023-06-04T01:14:26;16.60;69.10
30290;DHT22;17105;55.652;37.710;2023-06-04T01:14:59;16.60;69.20
30290;DHT22;17105;55.652;37.710;2023-06-04T01:15:37;16.60;69.30
30290;DHT22;17105;55.652;37.710;2023-06-04T01:16:13;16.60;69.40
30290;DHT22;17105;55.652;37.710;2023-06-04T01:16:51;16.60;69.40
30290;DHT22;17105;55.652;37.710;2023-06-04T01:17:39;16.60;69.50
30290;DHT22;17105;55.652;37.710;2023-06-04T01:18:23;16.60;69.50
30290;DHT22;17105;55.652;37.710;2023-06-04T01:19:02;16.50;69.60
30290;DHT22;17105;55.652;37.710;2023-06-04T01:20:04;16.50;69.70
30290;DHT22;17105;55.652;37.710;2023-06-04T01:20:46;16.50;69.70
30290;DHT22;17105;55.652;37.710;2023-06-04T01:21:21;16.50;69.80
30290;DHT22;17105;55.652;37.710;2023-06-04T01:22:04;16.50;70.00
30290;DHT22;17105;55.652;37.710;2023-06-04T01:22:49;16.50;69.90
30290;DHT22;17105;55.652;37.710;2023-06-04T01:23:38;16.50;70.10
30290;DHT22;17105;55.652;37.710;2023-06-04T01:24:16;16.50;71.00
30290;DHT22;17105;55.652;37.710;2023-06-04T01:24:54;16.40;70.50
30290;DHT22;17105;55.652;37.710;2023-06-04T01:25:32;16.40;70.30
30290;DHT22;17105;55.652;37.710;2023-06-04T01:26:10;16.40;70.60
30290;DHT22;17105;55.652;37.710;2023-06-04T01:26:43;16.40;70.80
30290;DHT22;17105;55.652;37.710;2023-06-04T01:27:17;16.50;70.70
30290;DHT22;17105;55.652;37.710;2023-06-04T01:27:55;16.40;70.50
30290;DHT22;17105;55.652;37.710;2023-06-04T01:28:32;16.50;70.70
30290;DHT22;17105;55.652;37.710;2023-06-04T01:29:06;16.50;70.80
30290;DHT22;17105;55.652;37.710;2023-06-04T01:29:40;16.50;70.80
30290;DHT22;17105;55.652;37.710;2023-06-04T01:30:16;16.50;70.80
30290;DHT22;17105;55.652;37.710;2023-06-04T01:30:50;16.50;70.60
30290;DHT22;17105;55.652;37.710;2023-06-04T01:31:25;16.50;70.40
30290;DHT22;17105;55.652;37.710;2023-06-04T01:32:00;16.50;70.60
30290;DHT22;17105;55.652;37.710;2023-06-04T01:32:34;16.50;70.60
30290;DHT22;17105;55.652;37.710;2023-06-04T01:33:10;16.50;70.70
30290;DHT22;17105;55.652;37.710;2023-06-04T01:33:43;16.50;70.90
30290;DHT22;17105;55.652;37.710;2023-06-04T01:34:18;16.50;70.90
30290;DHT22;17105;55.652;37.710;2023-06-04T01:34:51;16.50;70.80
30290;DHT22;17105;55.652;37.710;2023-06-04T01:35:25;16.50;70.80
30290;DHT22;17105;55.652;37.710;2023-06-04T01:36:00;16.50;70.80
30290;DHT22;17105;55.652;37.710;2023-06-04T01:36:35;16.50;70.90
30290;DHT22;17105;55.652;37.710;2023-06-04T01:37:09;16.50;70.90
30290;DHT22;17105;55.652;37.710;2023-06-04T01:37:45;16.50;70.70
30290;DHT22;17105;55.652;37.710;2023-06-04T01:38:18;16.60;70.70
30290;DHT22;17105;55.652;37.710;2023-06-04T01:38:52;16.50;70.80
30290;DHT22;17105;55.652;37.710;2023-06-04T01:39:29;16.50;70.60
30290;DHT22;17105;55.652;37.710;2023-06-04T01:40:05;16.50;70.50
30290;DHT22;17105;55.652;37.710;2023-06-04T01:40:42;16.50;70.50
30290;DHT22;17105;55.652;37.710;2023-06-04T01:41:17;16.50;70.70
30290;DHT22;17105;55.652;37.710;2023-06-04T01:41:51;16.50;70.60
30290;DHT22;17105;55.652;37.710;2023-06-04T01:42:25;16.50;70.40
30290;DHT22;17105;55.652;37.710;2023-06-04T01:43:01;16.50;70.30
30290;DHT22;17105;55.652;37.710;2023-06-04T01:43:35;16.50;70.30
30290;DHT22;17105;55.652;37.710;2023-06-04T01:44:09;16.50;70.50
30290;DHT22;17105;55.652;37.710;2023-06-04T01:44:44;16.50;70.30
30290;DHT22;17105;55.652;37.710;2023-06-04T01:45:17;16.50;70.40
30290;DHT22;17105;55.652;37.710;2023-06-04T01:45:51;16.50;70.50
30290;DHT22;17105;55.652;37.710;2023-06-04T01:46:25;16.50;70.50
30290;DHT22;17105;55.652;37.710;2023-06-04T01:46:59;16.50;70.70
30290;DHT22;17105;55.652;37.710;2023-06-04T01:47:34;16.50;70.80
30290;DHT22;17105;55.652;37.710;2023-06-04T01:48:09;16.50;70.70
30290;DHT22;17105;55.652;37.710;2023-06-04T01:48:43;16.50;70.50
30290;DHT22;17105;55.652;37.710;2023-06-04T01:49:16;16.50;70.80
30290;DHT22;17105;55.652;37.710;2023-06-04T01:49:51;16.50;70.70
30290;DHT22;17105;55.652;37.710;2023-06-04T01:50:25;16.50;70.70
30290;DHT22;17105;55.652;37.710;2023-06-04T01:50:59;16.50;70.50
30290;DHT22;17105;55.652;37.710;2023-06-04T01:51:33;16.50;70.50
30290;DHT22;17105;55.652;37.710;2023-06-04T01:52:08;16.50;70.60
30290;DHT22;17105;55.652;37.710;2023-06-04T01:52:41;16.50;70.60
30290;DHT22;17105;55.652;37.710;2023-06-04T01:53:15;16.60;70.80
30290;DHT22;17105;55.652;37.710;2023-06-04T01:53:50;16.50;70.80
30290;DHT22;17105;55.652;37.710;2023-06-04T01:54:23;16.60;70.90
30290;DHT22;17105;55.652;37.710;2023-06-04T01:54:56;16.60;70.60
30290;DHT22;17105;55.652;37.710;2023-06-04T01:55:31;16.50;70.70
30290;DHT22;17105;55.652;37.710;2023-06-04T01:56:06;16.60;70.70
30290;DHT22;17105;55.652;37.710;2023-06-04T01:56:42;16.60;70.20
30290;DHT22;17105;55.652;37.710;2023-06-04T01:57:17;16.50;70.30
30290;DHT22;17105;55.652;37.710;2023-06-04T01:57:51;16.60;70.30
30290;DHT22;17105;55.652;37.710;2023-06-04T01:58:24;16.50;70.20
30290;DHT22;17105;55.652;37.710;2023-06-04T01:59:00;16.50;70.10
30290;DHT22;17105;55.652;37.710;2023-06-04T01:59:36;16.50;70.10
30290;DHT22;17105;55.652;37.710;2023-06-04T02:00:11;16.50;70.00
30290;DHT22;17105;55.652;37.710;2023-06-04T02:00:47;16.50;70.00
30290;DHT22;17105;55.652;37.710;2023-06-04T02:01:24;16.50;69.90
30290;DHT22;17105;55.652;37.710;2023-06-04T02:01:58;16.50;69.80
30290;DHT22;17105;55.652;37.710;2023-06-04T02:02:34;16.50;70.10
30290;DHT22;17105;55.652;37.710;2023-06-04T02:03:10;16.50;70.00
30290;DHT22;17105;55.652;37.710;2023-06-04T02:03:46;16.50;69.90
30290;DHT22;17105;55.652;37.710;2023-06-04T02:04:19;16.50;69.90
30290;DHT22;17105;55.652;37.710;2023-06-04T02:04:54;16.50;69.80
30290;DHT22;17105;55.652;37.710;2023-06-04T02:05:28;16.50;70.00
30290;DHT22;17105;55.652;37.710;2023-06-04T02:06:04;16.50;70.00
30290;DHT22;17105;55.652;37.710;2023-06-04T02:06:40;16.50;70.00
30290;DHT22;17105;55.652;37.710;2023-06-04T02:07:13;16.50;70.00
30290;DHT22;17105;55.652;37.710;2023-06-04T02:07:51;16.60;68.10
30290;DHT22;17105;55.652;37.710;2023-06-04T02:08:24;16.60;68.30
30290;DHT22;17105;55.652;37.710;2023-06-04T02:09:00;16.50;68.10
30290;DHT22;17105;55.652;37.710;2023-06-04T02:09:36;16.50;68.00
30290;DHT22;17105;55.652;37.710;2023-06-04T02:10:11;16.40;67.50
30290;DHT22;17105;55.652;37.710;2023-06-04T02:10:46;16.40;67.90
30290;DHT22;17105;55.652;37.710;2023-06-04T02:11:21;16.30;67.80
30290;DHT22;17105;55.652;37.710;2023-06-04T02:11:55;16.30;67.70
30290;DHT22;17105;55.652;37.710;2023-06-04T02:12:29;16.20;67.70
30290;DHT22;17105;55.652;37.710;2023-06-04T02:13:06;16.20;68.10
30290;DHT22;17105;55.652;37.710;2023-06-04T02:13:40;16.20;68.10
30290;DHT22;17105;55.652;37.710;2023-06-04T02:14:14;16.10;68.00
30290;DHT22;17105;55.652;37.710;2023-06-04T02:14:48;16.10;68.30
30290;DHT22;17105;55.652;37.710;2023-06-04T02:15:24;16.00;68.30
30290;DHT22;17105;55.652;37.710;2023-06-04T02:15:57;16.00;68.90
30290;DHT22;17105;55.652;37.710;2023-06-04T02:16:32;15.90;69.10
30290;DHT22;17105;55.652;37.710;2023-06-04T02:17:07;15.90;69.40
30290;DHT22;17105;55.652;37.710;2023-06-04T02:17:45;15.90;69.30
30290;DHT22;17105;55.652;37.710;2023-06-04T02:18:21;15.90;69.50
30290;DHT22;17105;55.652;37.710;2023-06-04T02:18:59;15.80;69.10
30290;DHT22;17105;55.652;37.710;2023-06-04T02:19:34;15.80;69.30
30290;DHT22;17105;55.652;37.710;2023-06-04T02:20:11;15.80;69.60
30290;DHT22;17105;55.652;37.710;2023-06-04T02:20:48;15.70;69.60
30290;DHT22;17105;55.652;37.710;2023-06-04T02:21:22;15.70;69.30
30290;DHT22;17105;55.652;37.710;2023-06-04T02:21:55;15.70;69.40
30290;DHT22;17105;55.652;37.710;2023-06-04T02:22:30;15.70;69.30
30290;DHT22;17105;55.652;37.710;2023-06-04T02:23:05;15.70;69.40
30290;DHT22;17105;55.652;37.710;2023-06-04T02:23:38;15.70;69.40
30290;DHT22;17105;55.652;37.710;2023-06-04T02:24:14;15.70;69.20
30290;DHT22;17105;55.652;37.710;2023-06-04T02:24:47;15.70;69.40
30290;DHT22;17105;55.652;37.710;2023-06-04T02:25:22;15.60;69.30
30290;DHT22;17105;55.652;37.710;2023-06-04T02:25:57;15.60;69.60
30290;DHT22;17105;55.652;37.710;2023-06-04T02:26:31;15.60;69.10
30290;DHT22;17105;55.652;37.710;2023-06-04T02:27:05;15.60;69.30
30290;DHT22;17105;55.652;37.710;2023-06-04T02:27:41;15.60;69.00
30290;DHT22;17105;55.652;37.710;2023-06-04T02:28:15;15.50;69.40
30290;DHT22;17105;55.652;37.710;2023-06-04T02:28:49;15.50;69.20
30290;DHT22;17105;55.652;37.710;2023-06-04T02:29:23;15.50;69.80
30290;DHT22;17105;55.652;37.710;2023-06-04T02:29:58;15.50;69.30
30290;DHT22;17105;55.652;37.710;2023-06-04T02:30:31;15.50;69.20
30290;DHT22;17105;55.652;37.710;2023-06-04T02:31:07;15.50;69.30
30290;DHT22;17105;55.652;37.710;2023-06-04T02:31:41;15.50;69.80
30290;DHT22;17105;55.652;37.710;2023-06-04T02:32:14;15.50;69.80
30290;DHT22;17105;55.652;37.710;2023-06-04T02:32:49;15.50;69.70
30290;DHT22;17105;55.652;37.710;2023-06-04T02:33:26;15.40;69.80
30290;DHT22;17105;55.652;37.710;2023-06-04T02:34:00;15.50;70.10
30290;DHT22;17105;55.652;37.710;2023-06-04T02:34:34;15.40;69.80
30290;DHT22;17105;55.652;37.710;2023-06-04T02:35:09;15.40;70.30
30290;DHT22;17105;55.652;37.710;2023-06-04T02:35:43;15.50;70.20
30290;DHT22;17105;55.652;37.710;2023-06-04T02:36:20;15.40;70.30
30290;DHT22;17105;55.652;37.710;2023-06-04T02:36:54;15.50;70.70
30290;DHT22;17105;55.652;37.710;2023-06-04T02:37:28;15.40;70.40
30290;DHT22;17105;55.652;37.710;2023-06-04T02:38:03;15.40;70.60
30290;DHT22;17105;55.652;37.710;2023-06-04T02:38:36;15.40;70.50
30290;DHT22;17105;55.652;37.710;2023-06-04T02:39:11;15.50;70.30
30290;DHT22;17105;55.652;37.710;2023-06-04T02:39:45;15.40;70.00
30290;DHT22;17105;55.652;37.710;2023-06-04T02:40:19;15.40;70.00
30290;DHT22;17105;55.652;37.710;2023-06-04T02:40:53;15.40;70.00
30290;DHT22;17105;55.652;37.710;2023-06-04T02:41:27;15.40;69.90
30290;DHT22;17105;55.652;37.710;2023-06-04T02:42:03;15.40;70.30
30290;DHT22;17105;55.652;37.710;2023-06-04T02:42:37;15.40;70.80
30290;DHT22;17105;55.652;37.710;2023-06-04T02:43:11;15.40;70.50
30290;DHT22;17105;55.652;37.710;2023-06-04T02:43:45;15.40;69.90
30290;DHT22;17105;55.652;37.710;2023-06-04T02:44:19;15.40;70.40
30290;DHT22;17105;55.652;37.710;2023-06-04T02:44:53;15.40;70.60
30290;DHT22;17105;55.652;37.710;2023-06-04T02:45:28;15.40;71.00
30290;DHT22;17105;55.652;37.710;2023-06-04T02:46:03;15.40;71.30
30290;DHT22;17105;55.652;37.710;2023-06-04T02:46:37;15.40;71.10
30290;DHT22;17105;55.652;37.710;2023-06-04T02:47:12;15.40;71.00
30290;DHT22;17105;55.652;37.710;2023-06-04T02:47:45;15.40;71.00
30290;DHT22;17105;55.652;37.710;2023-06-04T02:48:18;15.40;70.90
30290;DHT22;17105;55.652;37.710;2023-06-04T02:48:55;15.40;70.80
30290;DHT22;17105;55.652;37.710;2023-06-04T02:49:31;15.40;70.60
30290;DHT22;17105;55.652;37.710;2023-06-04T02:50:07;15.40;70.70
30290;DHT22;17105;55.652;37.710;2023-06-04T02:50:42;15.40;70.80
30290;DHT22;17105;55.652;37.710;2023-06-04T02:51:16;15.40;70.70
30290;DHT22;17105;55.652;37.710;2023-06-04T02:51:51;15.40;70.90
30290;DHT22;17105;55.652;37.710;2023-06-04T02:52:25;15.40;71.00
30290;DHT22;17105;55.652;37.710;2023-06-04T02:52:59;15.40;70.90
30290;DHT22;17105;55.652;37.710;2023-06-04T02:53:32;15.40;71.60
30290;DHT22;17105;55.652;37.710;2023-06-04T02:54:07;15.40;71.10
30290;DHT22;17105;55.652;37.710;2023-06-04T02:54:42;15.50;71.00
30290;DHT22;17105;55.652;37.710;2023-06-04T02:55:15;15.40;70.90
30290;DHT22;17105;55.652;37.710;2023-06-04T02:55:49;15.40;71.00
30290;DHT22;17105;55.652;37.710;2023-06-04T02:56:24;15.40;71.00
30290;DHT22;17105;55.652;37.710;2023-06-04T02:56:58;15.50;70.80
30290;DHT22;17105;55.652;37.710;2023-06-04T02:57:34;15.50;70.60
30290;DHT22;17105;55.652;37.710;2023-06-04T02:58:07;15.40;70.20
30290;DHT22;17105;55.652;37.710;2023-06-04T02:58:49;15.40;70.40
30290;DHT22;17105;55.652;37.710;2023-06-04T02:59:24;15.40;71.00
30290;DHT22;17105;55.652;37.710;2023-06-04T02:59:59;15.50;71.20
30290;DHT22;17105;55.652;37.710;2023-06-04T03:00:33;15.40;71.30
30290;DHT22;17105;55.652;37.710;2023-06-04T03:01:08;15.40;70.70
30290;DHT22;17105;55.652;37.710;2023-06-04T03:01:41;15.50;70.20
30290;DHT22;17105;55.652;37.710;2023-06-04T03:02:16;15.40;70.90
30290;DHT22;17105;55.652;37.710;2023-06-04T03:02:50;15.40;70.80
30290;DHT22;17105;55.652;37.710;2023-06-04T03:03:25;15.50;71.20
30290;DHT22;17105;55.652;37.710;2023-06-04T03:04:02;15.50;71.00
30290;DHT22;17105;55.652;37.710;2023-06-04T03:04:38;15.50;71.00
30290;DHT22;17105;55.652;37.710;2023-06-04T03:05:13;15.50;71.40
30290;DHT22;17105;55.652;37.710;2023-06-04T03:05:48;15.50;71.50
30290;DHT22;17105;55.652;37.710;2023-06-04T03:06:23;15.50;71.00
30290;DHT22;17105;55.652;37.710;2023-06-04T03:06:58;15.50;70.50
30290;DHT22;17105;55.652;37.710;2023-06-04T03:07:32;15.50;70.60
30290;DHT22;17105;55.652;37.710;2023-06-04T03:08:08;15.50;70.70
30290;DHT22;17105;55.652;37.710;2023-06-04T03:08:41;15.50;70.70
30290;DHT22;17105;55.652;37.710;2023-06-04T03:09:16;15.50;70.80
30290;DHT22;17105;55.652;37.710;2023-06-04T03:09:51;15.50;70.70
30290;DHT22;17105;55.652;37.710;2023-06-04T03:10:25;15.50;70.80
30290;DHT22;17105;55.652;37.710;2023-06-04T03:10:59;15.50;71.50
30290;DHT22;17105;55.652;37.710;2023-06-04T03:11:34;15.50;70.50
30290;DHT22;17105;55.652;37.710;2023-06-04T03:12:08;15.50;70.80
30290;DHT22;17105;55.652;37.710;2023-06-04T03:12:42;15.50;70.90
30290;DHT22;17105;55.652;37.710;2023-06-04T03:13:17;15.50;70.90
30290;DHT22;17105;55.652;37.710;2023-06-04T03:13:51;15.50;70.90
30290;DHT22;17105;55.652;37.710;2023-06-04T03:14:25;15.50;70.90
30290;DHT22;17105;55.652;37.710;2023-06-04T03:15:07;15.50;71.60
30290;DHT22;17105;55.652;37.710;2023-06-04T03:15:40;15.50;70.50
30290;DHT22;17105;55.652;37.710;2023-06-04T03:16:14;15.50;70.20
30290;DHT22;17105;55.652;37.710;2023-06-04T03:16:49;15.60;70.50
30290;DHT22;17105;55.652;37.710;2023-06-04T03:17:25;15.50;70.40
30290;DHT22;17105;55.652;37.710;2023-06-04T03:17:58;15.50;70.50
30290;DHT22;17105;55.652;37.710;2023-06-04T03:18:33;15.50;70.60
30290;DHT22;17105;55.652;37.710;2023-06-04T03:19:09;15.50;70.80
30290;DHT22;17105;55.652;37.710;2023-06-04T03:19:45;15.50;71.40
30290;DHT22;17105;55.652;37.710;2023-06-04T03:20:20;15.50;71.90
30290;DHT22;17105;55.652;37.710;2023-06-04T03:20:57;15.60;71.40
30290;DHT22;17105;55.652;37.710;2023-06-04T03:21:31;15.60;71.10
30290;DHT22;17105;55.652;37.710;2023-06-04T03:22:08;15.60;71.40
30290;DHT22;17105;55.652;37.710;2023-06-04T03:22:42;15.60;70.80
30290;DHT22;17105;55.652;37.710;2023-06-04T03:23:15;15.60;70.30
30290;DHT22;17105;55.652;37.710;2023-06-04T03:23:50;15.60;70.80
30290;DHT22;17105;55.652;37.710;2023-06-04T03:24:24;15.60;70.50
30290;DHT22;17105;55.652;37.710;2023-06-04T03:24:59;15.60;70.20
30290;DHT22;17105;55.652;37.710;2023-06-04T03:25:34;15.60;70.60
30290;DHT22;17105;55.652;37.710;2023-06-04T03:26:06;15.60;70.90
30290;DHT22;17105;55.652;37.710;2023-06-04T03:26:40;15.60;71.70
30290;DHT22;17105;55.652;37.710;2023-06-04T03:27:16;15.60;71.40
30290;DHT22;17105;55.652;37.710;2023-06-04T03:27:49;15.60;71.30
30290;DHT22;17105;55.652;37.710;2023-06-04T03:28:23;15.60;71.20
30290;DHT22;17105;55.652;37.710;2023-06-04T03:28:58;15.60;71.10
30290;DHT22;17105;55.652;37.710;2023-06-04T03:29:32;15.60;70.60
30290;DHT22;17105;55.652;37.710;2023-06-04T03:30:10;15.70;70.50
30290;DHT22;17105;55.652;37.710;2023-06-04T03:30:53;15.60;69.90
30290;DHT22;17105;55.652;37.710;2023-06-04T03:31:29;15.70;70.10
30290;DHT22;17105;55.652;37.710;2023-06-04T03:32:07;15.60;70.40
30290;DHT22;17105;55.652;37.710;2023-06-04T03:32:42;15.60;70.60
30290;DHT22;17105;55.652;37.710;2023-06-04T03:33:19;15.60;70.90
30290;DHT22;17105;55.652;37.710;2023-06-04T03:33:52;15.70;70.80
30290;DHT22;17105;55.652;37.710;2023-06-04T03:34:27;15.60;70.80
30290;DHT22;17105;55.652;37.710;2023-06-04T03:35:09;15.70;71.30
30290;DHT22;17105;55.652;37.710;2023-06-04T03:35:43;15.70;70.20
30290;DHT22;17105;55.652;37.710;2023-06-04T03:36:19;15.70;69.90
30290;DHT22;17105;55.652;37.710;2023-06-04T03:37:06;15.70;70.00
30290;DHT22;17105;55.652;37.710;2023-06-04T03:37:40;15.70;70.00
30290;DHT22;17105;55.652;37.710;2023-06-04T03:38:14;15.70;69.60
30290;DHT22;17105;55.652;37.710;2023-06-04T03:38:48;15.70;69.50
30290;DHT22;17105;55.652;37.710;2023-06-04T03:39:22;15.70;69.60